sensor_id;sensor_type;location;lat;lon;timestamp;pressure;altitude;pressure_sealevel;temperature;humidity
6028;BME280;3042;43.194;27.646;2023-02-28T00:00:39;102460.41;;;14.47;100.00
6028;BME280;3042;43.194;27.646;2023-02-28T00:03:06;102596.09;;;14.85;100.00
6028;BME280;3042;43.194;27.646;2023-02-28T00:05:33;102435.00;;;13.97;100.00
6028;BME280;3042;43.194;27.646;2023-02-28T00:08:00;102390.41;;;13.45;100.00
6028;BME280;3042;43.194;27.646;2023-02-28T00:10:29;102595.09;;;14.97;100.00
6028;BME280;3042;43.194;27.646;2023-02-28T00:13:00;102600.59;;;15.18;100.00
6028;BME280;3042;43.194;27.646;2023-02-28T00:15:27;102609.03;;;15.14;100.00
6028;BME280;3042;43.194;27.646;2023-02-28T00:17:55;102563.31;;;15.03;100.00
6028;BME280;3042;43.194;27.646;2023-02-28T00:20:23;102620.81;;;15.39;100.00
6028;BME280;3042;43.194;27.646;2023-02-28T00:22:52;102468.09;;;14.61;100.00
6028;BME280;3042;43.194;27.646;2023-02-28T00:25:21;102620.75;;;15.54;100.00
6028;BME280;3042;43.194;27.646;2023-02-28T00:27:49;102609.84;;;15.45;100.00
6028;BME280;3042;43.194;27.646;2023-02-28T00:30:18;102617.03;;;15.65;100.00
6028;BME280;3042;43.194;27.646;2023-02-28T00:32:46;102639.63;;;14.87;100.00
6028;BME280;3042;43.194;27.646;2023-02-28T00:35:15;102490.47;;;14.42;100.00
6028;BME280;3042;43.194;27.646;2023-02-28T00:37:42;102644.44;;;14.96;100.00
6028;BME280;3042;43.194;27.646;2023-02-28T00:40:10;102285.41;;;12.97;100.00
6028;BME280;3042;43.194;27.646;2023-02-28T00:42:38;102644.00;;;14.88;100.00
6028;BME280;3042;43.194;27.646;2023-02-28T00:45:06;102625.53;;;14.98;100.00
6028;BME280;3042;43.194;27.646;2023-02-28T00:47:34;102627.13;;;14.82;100.00
6028;BME280;3042;43.194;27.646;2023-02-28T00:50:01;102575.69;;;14.61;100.00
6028;BME280;3042;43.194;27.646;2023-02-28T00:52:30;102325.75;;;13.35;100.00
6028;BME280;3042;43.194;27.646;2023-02-28T00:54:57;102627.41;;;14.86;100.00
6028;BME280;3042;43.194;27.646;2023-02-28T00:57:24;102578.44;;;14.49;100.00
6028;BME280;3042;43.194;27.646;2023-02-28T00:59:51;102634.22;;;14.84;100.00
6028;BME280;3042;43.194;27.646;2023-02-28T01:02:20;102621.47;;;15.04;100.00
6028;BME280;3042;43.194;27.646;2023-02-28T01:04:47;102628.25;;;15.16;100.00
6028;BME280;3042;43.194;27.646;2023-02-28T01:07:14;102642.63;;;15.10;100.00
6028;BME280;3042;43.194;27.646;2023-02-28T01:09:42;102635.94;;;15.30;100.00
6028;BME280;3042;43.194;27.646;2023-02-28T01:12:09;102653.88;;;15.09;100.00
6028;BME280;3042;43.194;27.646;2023-02-28T01:14:36;102642.97;;;15.16;100.00
6028;BME280;3042;43.194;27.646;2023-02-28T01:17:04;102641.22;;;15.15;100.00
6028;BME280;3042;43.194;27.646;2023-02-28T01:19:31;102645.38;;;14.96;100.00
6028;BME280;3042;43.194;27.646;2023-02-28T01:22:01;102647.84;;;15.10;100.00
6028;BME280;3042;43.194;27.646;2023-02-28T01:24:28;102664.97;;;14.75;100.00
6028;BME280;3042;43.194;27.646;2023-02-28T01:26:56;102650.75;;;14.99;100.00
6028;BME280;3042;43.194;27.646;2023-02-28T01:29:23;102531.09;;;14.10;100.00
6028;BME280;3042;43.194;27.646;2023-02-28T01:31:50;102653.97;;;14.95;100.00
6028;BME280;3042;43.194;27.646;2023-02-28T01:34:17;102660.69;;;15.07;100.00
6028;BME280;3042;43.194;27.646;2023-02-28T01:36:45;102667.56;;;15.21;100.00
6028;BME280;3042;43.194;27.646;2023-02-28T01:39:12;102672.97;;;15.24;100.00
6028;BME280;3042;43.194;27.646;2023-02-28T01:41:39;102672.16;;;15.25;100.00
6028;BME280;3042;43.194;27.646;2023-02-28T01:47:13;102533.97;;;14.00;100.00
6028;BME280;3042;43.194;27.646;2023-02-28T01:49:41;102520.31;;;13.89;100.00
6028;BME280;3042;43.194;27.646;2023-02-28T01:52:10;102653.63;;;14.60;100.00
6028;BME280;3042;43.194;27.646;2023-02-28T01:54:46;102549.19;;;13.94;100.00
6028;BME280;3042;43.194;27.646;2023-02-28T01:57:18;102632.41;;;14.53;100.00
6028;BME280;3042;43.194;27.646;2023-02-28T01:59:50;102669.06;;;14.56;100.00
6028;BME280;3042;43.194;27.646;2023-02-28T02:02:20;102648.50;;;14.03;100.00
6028;BME280;3042;43.194;27.646;2023-02-28T02:04:53;102663.97;;;14.30;100.00
6028;BME280;3042;43.194;27.646;2023-02-28T02:07:22;102671.00;;;13.75;100.00
6028;BME280;3042;43.194;27.646;2023-02-28T02:09:50;102672.25;;;13.40;100.00
6028;BME280;3042;43.194;27.646;2023-02-28T02:12:27;102650.91;;;13.72;100.00
6028;BME280;3042;43.194;27.646;2023-02-28T02:15:08;102664.56;;;13.83;100.00
6028;BME280;3042;43.194;27.646;2023-02-28T02:17:40;102642.59;;;14.06;100.00
6028;BME280;3042;43.194;27.646;2023-02-28T02:20:32;102664.28;;;14.06;100.00
6028;BME280;3042;43.194;27.646;2023-02-28T02:23:30;102684.31;;;13.94;100.00
6028;BME280;3042;43.194;27.646;2023-02-28T02:26:12;102666.00;;;14.21;100.00
6028;BME280;3042;43.194;27.646;2023-02-28T02:32:10;102671.34;;;14.37;100.00
6028;BME280;3042;43.194;27.646;2023-02-28T02:34:50;102665.56;;;14.28;100.00
6028;BME280;3042;43.194;27.646;2023-02-28T02:37:27;102666.94;;;14.36;100.00
6028;BME280;3042;43.194;27.646;2023-02-28T02:40:02;102567.28;;;13.36;100.00
6028;BME280;3042;43.194;27.646;2023-02-28T02:42:39;102624.28;;;13.89;100.00
6028;BME280;3042;43.194;27.646;2023-02-28T02:45:11;102681.19;;;14.28;100.00
6028;BME280;3042;43.194;27.646;2023-02-28T02:47:40;102691.72;;;14.16;100.00
6028;BME280;3042;43.194;27.646;2023-02-28T02:50:13;102660.91;;;14.22;100.00
6028;BME280;3042;43.194;27.646;2023-02-28T02:52:43;102677.63;;;14.26;100.00
6028;BME280;3042;43.194;27.646;2023-02-28T02:55:13;102421.06;;;12.53;100.00
6028;BME280;3042;43.194;27.646;2023-02-28T02:57:46;102678.72;;;13.88;100.00
6028;BME280;3042;43.194;27.646;2023-02-28T03:00:16;102673.03;;;13.93;100.00
6028;BME280;3042;43.194;27.646;2023-02-28T03:02:45;102617.63;;;13.38;100.00
6028;BME280;3042;43.194;27.646;2023-02-28T03:05:19;102696.50;;;13.95;100.00
6028;BME280;3042;43.194;27.646;2023-02-28T03:07:47;102714.59;;;13.65;100.00
6028;BME280;3042;43.194;27.646;2023-02-28T03:10:32;102695.28;;;14.03;100.00
6028;BME280;3042;43.194;27.646;2023-02-28T03:13:18;102703.34;;;13.93;100.00
6028;BME280;3042;43.194;27.646;2023-02-28T03:15:56;102692.16;;;13.81;100.00
6028;BME280;3042;43.194;27.646;2023-02-28T03:18:30;102688.63;;;13.93;100.00
6028;BME280;3042;43.194;27.646;2023-02-28T03:21:06;102697.72;;;14.00;100.00
6028;BME280;3042;43.194;27.646;2023-02-28T03:23:45;102503.22;;;12.67;100.00
6028;BME280;3042;43.194;27.646;2023-02-28T03:26:19;102513.69;;;12.42;100.00
6028;BME280;3042;43.194;27.646;2023-02-28T03:28:53;102698.22;;;13.81;100.00
6028;BME280;3042;43.194;27.646;2023-02-28T03:31:29;102695.09;;;13.72;100.00
6028;BME280;3042;43.194;27.646;2023-02-28T03:34:01;102697.69;;;13.72;100.00
6028;BME280;3042;43.194;27.646;2023-02-28T03:36:36;102692.41;;;13.57;100.00
6028;BME280;3042;43.194;27.646;2023-02-28T03:39:13;102704.69;;;13.60;100.00
6028;BME280;3042;43.194;27.646;2023-02-28T03:41:43;102686.22;;;13.55;100.00
6028;BME280;3042;43.194;27.646;2023-02-28T03:44:17;102708.75;;;13.69;100.00
6028;BME280;3042;43.194;27.646;2023-02-28T03:46:49;102546.06;;;12.35;100.00
6028;BME280;3042;43.194;27.646;2023-02-28T03:49:22;102726.94;;;13.83;100.00
6028;BME280;3042;43.194;27.646;2023-02-28T03:51:51;102720.13;;;13.85;100.00
6028;BME280;3042;43.194;27.646;2023-02-28T03:54:23;102671.03;;;13.61;100.00
6028;BME280;3042;43.194;27.646;2023-02-28T03:56:56;102737.16;;;13.53;100.00
6028;BME280;3042;43.194;27.646;2023-02-28T03:59:29;102729.38;;;13.40;100.00
6028;BME280;3042;43.194;27.646;2023-02-28T04:01:59;102730.34;;;13.02;100.00
6028;BME280;3042;43.194;27.646;2023-02-28T04:04:26;102664.28;;;12.58;100.00
6028;BME280;3042;43.194;27.646;2023-02-28T04:07:02;102716.47;;;13.41;100.00
6028;BME280;3042;43.194;27.646;2023-02-28T04:09:29;102536.66;;;11.97;100.00
6028;BME280;3042;43.194;27.646;2023-02-28T04:11:56;102735.31;;;12.99;100.00
6028;BME280;3042;43.194;27.646;2023-02-28T04:14:23;102731.50;;;12.94;100.00
6028;BME280;3042;43.194;27.646;2023-02-28T04:16:50;102727.34;;;13.09;100.00
6028;BME280;3042;43.194;27.646;2023-02-28T04:19:18;102726.75;;;13.00;100.00
6028;BME280;3042;43.194;27.646;2023-02-28T04:21:46;102734.28;;;12.83;100.00
6028;BME280;3042;43.194;27.646;2023-02-28T04:24:16;102734.69;;;12.76;100.00
6028;BME280;3042;43.194;27.646;2023-02-28T04:26:45;102664.69;;;12.26;100.00
6028;BME280;3042;43.194;27.646;2023-02-28T04:29:19;102719.03;;;13.01;100.00
6028;BME280;3042;43.194;27.646;2023-02-28T04:31:47;102727.91;;;12.92;100.00
6028;BME280;3042;43.194;27.646;2023-02-28T04:34:14;102725.13;;;12.88;100.00
6028;BME280;3042;43.194;27.646;2023-02-28T04:36:41;102717.91;;;12.84;100.00
6028;BME280;3042;43.194;27.646;2023-02-28T04:39:08;102716.66;;;12.66;100.00
6028;BME280;3042;43.194;27.646;2023-02-28T04:41:37;102717.88;;;12.71;100.00
6028;BME280;3042;43.194;27.646;2023-02-28T04:44:04;102661.59;;;12.57;100.00
6028;BME280;3042;43.194;27.646;2023-02-28T04:46:31;102454.25;;;10.91;100.00
6028;BME280;3042;43.194;27.646;2023-02-28T04:48:58;102734.50;;;12.48;100.00
6028;BME280;3042;43.194;27.646;2023-02-28T04:51:25;102724.44;;;12.66;100.00
6028;BME280;3042;43.194;27.646;2023-02-28T04:53:52;102577.91;;;11.82;100.00
6028;BME280;3042;43.194;27.646;2023-02-28T04:56:20;102694.53;;;12.58;100.00
6028;BME280;3042;43.194;27.646;2023-02-28T04:58:49;102721.28;;;12.70;100.00
6028;BME280;3042;43.194;27.646;2023-02-28T05:01:21;102726.66;;;12.73;100.00
6028;BME280;3042;43.194;27.646;2023-02-28T05:03:48;102739.88;;;12.76;100.00
6028;BME280;3042;43.194;27.646;2023-02-28T05:06:16;102742.22;;;12.73;100.00
6028;BME280;3042;43.194;27.646;2023-02-28T05:08:43;102744.44;;;12.80;100.00
6028;BME280;3042;43.194;27.646;2023-02-28T05:11:15;102737.06;;;13.38;100.00
6028;BME280;3042;43.194;27.646;2023-02-28T05:13:43;102648.81;;;12.46;100.00
6028;BME280;3042;43.194;27.646;2023-02-28T05:16:11;102739.13;;;13.17;100.00
6028;BME280;3042;43.194;27.646;2023-02-28T05:18:38;102716.16;;;13.23;100.00
6028;BME280;3042;43.194;27.646;2023-02-28T05:21:06;102731.47;;;13.59;100.00
6028;BME280;3042;43.194;27.646;2023-02-28T05:23:44;102773.69;;;13.83;100.00
6028;BME280;3042;43.194;27.646;2023-02-28T05:26:11;102692.63;;;13.60;100.00
6028;BME280;3042;43.194;27.646;2023-02-28T05:28:38;102783.50;;;13.73;100.00
6028;BME280;3042;43.194;27.646;2023-02-28T05:31:05;102795.28;;;13.55;100.00
6028;BME280;3042;43.194;27.646;2023-02-28T05:33:34;102792.53;;;13.65;100.00
6028;BME280;3042;43.194;27.646;2023-02-28T05:36:01;102693.94;;;12.75;100.00
6028;BME280;3042;43.194;27.646;2023-02-28T05:38:28;102714.31;;;12.69;100.00
6028;BME280;3042;43.194;27.646;2023-02-28T05:40:55;102789.09;;;13.66;100.00
6028;BME280;3042;43.194;27.646;2023-02-28T05:43:22;102766.34;;;13.49;100.00
6028;BME280;3042;43.194;27.646;2023-02-28T05:45:49;102731.41;;;13.44;100.00
6028;BME280;3042;43.194;27.646;2023-02-28T05:48:16;102503.50;;;12.18;100.00
6028;BME280;3042;43.194;27.646;2023-02-28T05:50:45;102790.03;;;14.22;100.00
6028;BME280;3042;43.194;27.646;2023-02-28T05:53:12;102800.00;;;14.29;100.00
6028;BME280;3042;43.194;27.646;2023-02-28T05:55:39;102804.97;;;14.39;100.00
6028;BME280;3042;43.194;27.646;2023-02-28T05:58:06;102809.59;;;14.30;100.00
6028;BME280;3042;43.194;27.646;2023-02-28T06:00:33;102805.88;;;14.40;100.00
6028;BME280;3042;43.194;27.646;2023-02-28T06:03:00;102828.56;;;13.87;100.00
6028;BME280;3042;43.194;27.646;2023-02-28T06:05:28;102685.59;;;13.59;100.00
6028;BME280;3042;43.194;27.646;2023-02-28T06:07:56;102813.34;;;14.48;100.00
6028;BME280;3042;43.194;27.646;2023-02-28T06:10:23;102787.88;;;13.88;100.00
6028;BME280;3042;43.194;27.646;2023-02-28T06:12:50;102835.25;;;13.57;100.00
6028;BME280;3042;43.194;27.646;2023-02-28T06:15:17;102829.75;;;13.52;100.00
6028;BME280;3042;43.194;27.646;2023-02-28T06:17:46;102714.81;;;13.28;100.00
6028;BME280;3042;43.194;27.646;2023-02-28T06:20:13;102833.03;;;13.37;100.00
6028;BME280;3042;43.194;27.646;2023-02-28T06:22:40;102822.69;;;13.77;100.00
6028;BME280;3042;43.194;27.646;2023-02-28T06:25:09;102785.31;;;13.61;100.00
6028;BME280;3042;43.194;27.646;2023-02-28T06:27:37;102653.69;;;12.17;100.00
6028;BME280;3042;43.194;27.646;2023-02-28T06:30:05;102809.00;;;13.66;100.00
6028;BME280;3042;43.194;27.646;2023-02-28T06:32:32;102732.94;;;13.15;100.00
6028;BME280;3042;43.194;27.646;2023-02-28T06:34:59;102799.00;;;13.59;100.00
6028;BME280;3042;43.194;27.646;2023-02-28T06:37:26;102728.47;;;12.74;100.00
6028;BME280;3042;43.194;27.646;2023-02-28T06:39:54;102818.28;;;13.76;100.00
6028;BME280;3042;43.194;27.646;2023-02-28T06:42:23;102825.50;;;13.93;100.00
6028;BME280;3042;43.194;27.646;2023-02-28T06:44:54;102830.28;;;13.73;100.00
6028;BME280;3042;43.194;27.646;2023-02-28T06:47:22;102829.06;;;13.55;100.00
6028;BME280;3042;43.194;27.646;2023-02-28T06:49:49;102651.56;;;12.88;100.00
6028;BME280;3042;43.194;27.646;2023-02-28T06:52:16;102835.47;;;13.73;100.00
6028;BME280;3042;43.194;27.646;2023-02-28T06:54:43;102833.69;;;13.72;100.00
6028;BME280;3042;43.194;27.646;2023-02-28T06:57:10;102826.00;;;13.61;100.00
6028;BME280;3042;43.194;27.646;2023-02-28T06:59:39;102825.97;;;13.47;100.00
6028;BME280;3042;43.194;27.646;2023-02-28T07:02:08;102815.28;;;13.69;100.00
6028;BME280;3042;43.194;27.646;2023-02-28T07:04:35;102812.69;;;13.96;100.00
6028;BME280;3042;43.194;27.646;2023-02-28T07:07:02;102818.69;;;13.82;100.00
6028;BME280;3042;43.194;27.646;2023-02-28T07:09:29;102822.47;;;13.87;100.00
6028;BME280;3042;43.194;27.646;2023-02-28T07:11:56;102829.66;;;13.64;100.00
6028;BME280;3042;43.194;27.646;2023-02-28T07:14:23;102787.31;;;13.65;100.00
6028;BME280;3042;43.194;27.646;2023-02-28T07:16:51;102833.97;;;13.12;100.00
6028;BME280;3042;43.194;27.646;2023-02-28T07:19:18;102835.59;;;13.23;100.00
6028;BME280;3042;43.194;27.646;2023-02-28T07:21:45;102838.16;;;13.10;100.00
6028;BME280;3042;43.194;27.646;2023-02-28T07:24:13;102751.03;;;12.75;100.00
6028;BME280;3042;43.194;27.646;2023-02-28T07:26:43;102826.63;;;13.32;100.00
6028;BME280;3042;43.194;27.646;2023-02-28T07:29:10;102814.88;;;13.50;100.00
6028;BME280;3042;43.194;27.646;2023-02-28T07:31:37;102812.91;;;13.72;100.00
6028;BME280;3042;43.194;27.646;2023-02-28T07:34:06;102800.09;;;13.89;100.00
6028;BME280;3042;43.194;27.646;2023-02-28T07:36:32;102812.59;;;13.55;100.00
6028;BME280;3042;43.194;27.646;2023-02-28T07:38:59;102816.09;;;13.42;100.00
6028;BME280;3042;43.194;27.646;2023-02-28T07:41:26;102754.91;;;13.07;100.00
6028;BME280;3042;43.194;27.646;2023-02-28T07:43:55;102807.09;;;13.63;100.00
6028;BME280;3042;43.194;27.646;2023-02-28T07:46:23;102735.63;;;13.17;100.00
6028;BME280;3042;43.194;27.646;2023-02-28T07:48:50;102760.56;;;13.40;100.00
6028;BME280;3042;43.194;27.646;2023-02-28T07:51:19;102788.78;;;14.30;100.00
6028;BME280;3042;43.194;27.646;2023-02-28T07:53:46;102805.53;;;14.48;100.00
6028;BME280;3042;43.194;27.646;2023-02-28T07:56:13;102810.41;;;14.29;100.00
6028;BME280;3042;43.194;27.646;2023-02-28T07:58:40;102816.78;;;14.34;100.00
6028;BME280;3042;43.194;27.646;2023-02-28T08:01:08;102803.66;;;14.74;100.00
6028;BME280;3042;43.194;27.646;2023-02-28T08:03:37;102620.31;;;13.40;100.00
6028;BME280;3042;43.194;27.646;2023-02-28T08:06:05;102798.84;;;14.52;100.00
6028;BME280;3042;43.194;27.646;2023-02-28T08:08:34;102785.13;;;14.26;100.00
6028;BME280;3042;43.194;27.646;2023-02-28T08:11:02;102833.06;;;14.58;100.00
6028;BME280;3042;43.194;27.646;2023-02-28T08:13:30;102802.28;;;13.96;100.00
6028;BME280;3042;43.194;27.646;2023-02-28T08:15:57;102835.41;;;14.27;100.00
6028;BME280;3042;43.194;27.646;2023-02-28T08:18:24;102805.22;;;14.15;100.00
6028;BME280;3042;43.194;27.646;2023-02-28T08:20:51;102826.97;;;14.44;100.00
6028;BME280;3042;43.194;27.646;2023-02-28T08:23:18;102838.84;;;14.12;100.00
6028;BME280;3042;43.194;27.646;2023-02-28T08:25:53;102793.09;;;14.29;100.00
6028;BME280;3042;43.194;27.646;2023-02-28T08:28:21;102845.28;;;13.91;100.00
6028;BME280;3042;43.194;27.646;2023-02-28T08:30:48;102832.25;;;14.04;100.00
6028;BME280;3042;43.194;27.646;2023-02-28T08:33:15;102842.47;;;14.01;100.00
6028;BME280;3042;43.194;27.646;2023-02-28T08:35:42;102844.47;;;13.79;100.00
6028;BME280;3042;43.194;27.646;2023-02-28T08:38:09;102852.78;;;13.86;100.00
6028;BME280;3042;43.194;27.646;2023-02-28T08:40:36;102734.38;;;13.50;100.00
6028;BME280;3042;43.194;27.646;2023-02-28T08:43:05;102836.16;;;14.11;100.00
6028;BME280;3042;43.194;27.646;2023-02-28T08:45:32;102841.53;;;14.14;100.00
6028;BME280;3042;43.194;27.646;2023-02-28T08:47:59;102826.50;;;14.36;100.00
6028;BME280;3042;43.194;27.646;2023-02-28T08:50:26;102832.66;;;14.52;100.00
6028;BME280;3042;43.194;27.646;2023-02-28T08:52:53;102841.72;;;14.72;100.00
6028;BME280;3042;43.194;27.646;2023-02-28T08:55:21;102765.63;;;13.78;100.00
6028;BME280;3042;43.194;27.646;2023-02-28T08:57:48;102771.50;;;13.89;100.00
6028;BME280;3042;43.194;27.646;2023-02-28T09:00:17;102793.38;;;14.06;100.00
6028;BME280;3042;43.194;27.646;2023-02-28T09:02:45;102860.25;;;13.95;100.00
6028;BME280;3042;43.194;27.646;2023-02-28T09:05:12;102847.03;;;14.19;100.00
6028;BME280;3042;43.194;27.646;2023-02-28T09:07:38;102678.03;;;13.49;100.00
6028;BME280;3042;43.194;27.646;2023-02-28T09:10:07;102843.81;;;14.23;100.00
6028;BME280;3042;43.194;27.646;2023-02-28T09:12:34;102827.19;;;14.47;100.00
6028;BME280;3042;43.194;27.646;2023-02-28T09:15:02;102843.19;;;14.40;100.00
6028;BME280;3042;43.194;27.646;2023-02-28T09:17:30;102830.75;;;14.63;100.00
6028;BME280;3042;43.194;27.646;2023-02-28T09:19:57;102804.53;;;14.46;100.00
6028;BME280;3042;43.194;27.646;2023-02-28T09:22:24;102836.94;;;14.65;100.00
6028;BME280;3042;43.194;27.646;2023-02-28T09:24:52;102829.97;;;14.50;100.00
6028;BME280;3042;43.194;27.646;2023-02-28T09:27:19;102849.13;;;14.38;100.00
6028;BME280;3042;43.194;27.646;2023-02-28T09:29:46;102850.09;;;14.40;100.00
6028;BME280;3042;43.194;27.646;2023-02-28T09:32:13;102846.28;;;14.34;100.00
6028;BME280;3042;43.194;27.646;2023-02-28T09:34:41;102825.97;;;14.01;100.00
6028;BME280;3042;43.194;27.646;2023-02-28T09:37:08;102818.69;;;13.82;100.00
6028;BME280;3042;43.194;27.646;2023-02-28T09:39:35;102690.03;;;13.34;100.00
6028;BME280;3042;43.194;27.646;2023-02-28T09:42:03;102838.75;;;14.52;100.00
6028;BME280;3042;43.194;27.646;2023-02-28T09:44:36;102721.78;;;13.98;100.00
6028;BME280;3042;43.194;27.646;2023-02-28T09:47:10;102848.13;;;14.35;100.00
6028;BME280;3042;43.194;27.646;2023-02-28T09:49:42;102843.13;;;14.53;100.00
6028;BME280;3042;43.194;27.646;2023-02-28T09:52:14;102858.41;;;14.34;100.00
6028;BME280;3042;43.194;27.646;2023-02-28T09:54:45;102854.22;;;14.23;100.00
6028;BME280;3042;43.194;27.646;2023-02-28T09:57:19;102849.75;;;14.48;100.00
6028;BME280;3042;43.194;27.646;2023-02-28T10:00:03;102842.84;;;14.90;100.00
6028;BME280;3042;43.194;27.646;2023-02-28T10:03:00;102833.69;;;15.12;100.00
6028;BME280;3042;43.194;27.646;2023-02-28T10:05:34;102746.88;;;13.97;100.00
6028;BME280;3042;43.194;27.646;2023-02-28T10:08:08;102853.25;;;14.62;100.00
6028;BME280;3042;43.194;27.646;2023-02-28T10:10:40;102861.16;;;14.50;100.00
6028;BME280;3042;43.194;27.646;2023-02-28T10:13:15;102851.91;;;14.54;100.00
6028;BME280;3042;43.194;27.646;2023-02-28T10:15:45;102854.78;;;14.59;100.00
6028;BME280;3042;43.194;27.646;2023-02-28T10:18:18;102766.63;;;14.22;100.00
6028;BME280;3042;43.194;27.646;2023-02-28T10:20:49;102709.34;;;13.79;100.00
6028;BME280;3042;43.194;27.646;2023-02-28T10:23:21;102829.75;;;14.61;100.00
6028;BME280;3042;43.194;27.646;2023-02-28T10:25:54;102812.16;;;14.99;100.00
6028;BME280;3042;43.194;27.646;2023-02-28T10:28:22;102827.03;;;14.87;100.00
6028;BME280;3042;43.194;27.646;2023-02-28T10:30:55;102698.94;;;14.35;100.00
6028;BME280;3042;43.194;27.646;2023-02-28T10:33:25;102602.94;;;13.25;100.00
6028;BME280;3042;43.194;27.646;2023-02-28T10:35:56;102731.50;;;14.00;100.00
6028;BME280;3042;43.194;27.646;2023-02-28T10:38:25;102628.72;;;13.36;100.00
6028;BME280;3042;43.194;27.646;2023-02-28T10:41:03;102792.50;;;15.05;100.00
6028;BME280;3042;43.194;27.646;2023-02-28T10:43:31;102793.13;;;15.15;100.00
6028;BME280;3042;43.194;27.646;2023-02-28T10:46:01;102786.31;;;15.32;100.00
6028;BME280;3042;43.194;27.646;2023-02-28T10:48:33;102795.47;;;15.26;100.00
6028;BME280;3042;43.194;27.646;2023-02-28T10:51:04;102765.84;;;15.09;100.00
6028;BME280;3042;43.194;27.646;2023-02-28T10:53:35;102794.47;;;15.38;100.00
6028;BME280;3042;43.194;27.646;2023-02-28T10:56:04;102797.81;;;15.36;100.00
6028;BME280;3042;43.194;27.646;2023-02-28T10:58:46;102703.16;;;14.76;100.00
6028;BME280;3042;43.194;27.646;2023-02-28T11:01:15;102669.56;;;14.36;100.00
6028;BME280;3042;43.194;27.646;2023-02-28T11:03:43;102802.75;;;14.59;100.00
6028;BME280;3042;43.194;27.646;2023-02-28T11:06:16;102716.28;;;14.77;100.00
6028;BME280;3042;43.194;27.646;2023-02-28T11:08:46;102788.81;;;15.01;100.00
6028;BME280;3042;43.194;27.646;2023-02-28T11:11:15;102786.47;;;14.91;100.00
6028;BME280;3042;43.194;27.646;2023-02-28T11:13:44;102468.28;;;13.30;100.00
6028;BME280;3042;43.194;27.646;2023-02-28T11:16:14;102671.16;;;14.49;100.00
6028;BME280;3042;43.194;27.646;2023-02-28T11:18:46;102591.91;;;13.56;100.00
6028;BME280;3042;43.194;27.646;2023-02-28T11:21:27;102779.19;;;15.00;100.00
6028;BME280;3042;43.194;27.646;2023-02-28T11:24:01;102759.72;;;15.23;100.00
6028;BME280;3042;43.194;27.646;2023-02-28T11:26:41;102718.06;;;14.93;100.00
6028;BME280;3042;43.194;27.646;2023-02-28T11:29:14;102757.34;;;15.43;100.00
6028;BME280;3042;43.194;27.646;2023-02-28T11:31:42;102771.13;;;14.95;100.00
6028;BME280;3042;43.194;27.646;2023-02-28T11:34:24;102637.63;;;14.24;100.00
6028;BME280;3042;43.194;27.646;2023-02-28T11:36:56;102767.72;;;14.96;100.00
6028;BME280;3042;43.194;27.646;2023-02-28T11:39:25;102767.41;;;14.77;100.00
6028;BME280;3042;43.194;27.646;2023-02-28T11:44:58;102749.13;;;15.20;100.00
6028;BME280;3042;43.194;27.646;2023-02-28T11:47:34;102761.66;;;14.68;100.00
6028;BME280;3042;43.194;27.646;2023-02-28T11:50:21;102613.31;;;13.39;100.00
6028;BME280;3042;43.194;27.646;2023-02-28T11:52:52;102727.03;;;14.69;100.00
6028;BME280;3042;43.194;27.646;2023-02-28T11:55:24;102740.44;;;14.90;100.00
6028;BME280;3042;43.194;27.646;2023-02-28T11:58:14;102692.56;;;15.03;100.00
6028;BME280;3042;43.194;27.646;2023-02-28T12:00:58;102739.97;;;14.82;100.00
6028;BME280;3042;43.194;27.646;2023-02-28T12:03:31;102746.47;;;14.61;100.00
6028;BME280;3042;43.194;27.646;2023-02-28T12:06:12;102738.16;;;14.81;100.00
6028;BME280;3042;43.194;27.646;2023-02-28T12:08:49;102694.81;;;14.96;100.00
6028;BME280;3042;43.194;27.646;2023-02-28T12:11:30;102741.56;;;15.10;100.00
6028;BME280;3042;43.194;27.646;2023-02-28T12:14:27;102682.81;;;14.26;100.00
6028;BME280;3042;43.194;27.646;2023-02-28T12:17:06;102732.16;;;14.39;100.00
6028;BME280;3042;43.194;27.646;2023-02-28T12:19:45;102762.03;;;14.59;100.00
6028;BME280;3042;43.194;27.646;2023-02-28T12:22:27;102763.69;;;14.30;100.00
6028;BME280;3042;43.194;27.646;2023-02-28T12:25:24;102693.50;;;14.45;100.00
6028;BME280;3042;43.194;27.646;2023-02-28T12:27:57;102773.69;;;14.66;100.00
6028;BME280;3042;43.194;27.646;2023-02-28T12:30:26;102760.47;;;15.06;100.00
6028;BME280;3042;43.194;27.646;2023-02-28T12:32:58;102757.75;;;15.04;100.00
6028;BME280;3042;43.194;27.646;2023-02-28T12:35:32;102697.63;;;14.85;100.00
6028;BME280;3042;43.194;27.646;2023-02-28T12:38:05;102629.78;;;14.67;100.00
6028;BME280;3042;43.194;27.646;2023-02-28T12:40:43;102706.41;;;15.02;100.00
6028;BME280;3042;43.194;27.646;2023-02-28T12:43:13;102733.59;;;15.07;100.00
6028;BME280;3042;43.194;27.646;2023-02-28T12:45:45;102580.91;;;14.03;100.00
6028;BME280;3042;43.194;27.646;2023-02-28T12:48:20;102748.41;;;14.78;100.00
6028;BME280;3042;43.194;27.646;2023-02-28T12:50:48;102610.25;;;13.72;100.00
6028;BME280;3042;43.194;27.646;2023-02-28T12:53:23;102750.91;;;14.76;100.00
6028;BME280;3042;43.194;27.646;2023-02-28T12:56:03;102747.88;;;14.98;100.00
6028;BME280;3042;43.194;27.646;2023-02-28T12:58:39;102751.78;;;14.77;100.00
6028;BME280;3042;43.194;27.646;2023-02-28T13:01:31;102750.56;;;14.85;100.00
6028;BME280;3042;43.194;27.646;2023-02-28T13:07:23;102755.06;;;14.73;100.00
6028;BME280;3042;43.194;27.646;2023-02-28T13:09:58;102706.22;;;14.54;100.00
6028;BME280;3042;43.194;27.646;2023-02-28T13:12:27;102756.84;;;14.74;100.00
6028;BME280;3042;43.194;27.646;2023-02-28T13:15:05;102755.31;;;14.77;100.00
6028;BME280;3042;43.194;27.646;2023-02-28T13:17:38;102759.41;;;14.59;100.00
6028;BME280;3042;43.194;27.646;2023-02-28T13:20:15;102749.56;;;14.83;100.00